createdAt,value
2019-04-01T00:00:44.176Z,63.72
2019-04-01T00:03:16.677Z,64.43
2019-04-01T00:05:49.186Z,64.98
2019-04-01T00:08:21.521Z,66.55
2019-04-01T00:10:54.199Z,66.02
2019-04-01T00:13:26.576Z,66.13
2019-04-01T00:15:58.831Z,66.42
2019-04-01T00:18:31.291Z,66.95
2019-04-01T00:21:03.662Z,65.94
2019-04-01T00:23:36.246Z,66.68
2019-04-01T00:26:08.617Z,66.59
2019-04-01T00:28:41.002Z,67.82
2019-04-01T00:31:13.465Z,67.76
2019-04-01T00:33:45.871Z,66.89
2019-04-01T00:36:18.173Z,67.24
2019-04-01T00:38:50.596Z,67.36
2019-04-01T00:41:49.476Z,67.47
2019-04-01T00:44:21.942Z,67.18
2019-04-01T00:46:54.366Z,67.25
2019-04-01T00:49:26.966Z,68.23
2019-04-01T00:51:59.526Z,68.51
2019-04-01T00:54:31.813Z,68.53
2019-04-01T00:57:04.116Z,69.37
2019-04-01T00:59:36.312Z,70.51
2019-04-01T01:02:08.751Z,70.78
2019-04-01T01:04:42.237Z,70.90
2019-04-01T01:07:14.581Z,71.75
2019-04-01T01:09:48.001Z,73.07
2019-04-01T01:12:20.807Z,73.05
2019-04-01T01:14:54.491Z,72.98
2019-04-01T01:17:27.844Z,72.77
2019-04-01T01:20:00.517Z,72.84
2019-04-01T01:22:33.046Z,72.74
2019-04-01T01:25:05.608Z,73.10
2019-04-01T01:27:39.146Z,73.50
2019-04-01T01:30:12.386Z,74.03
2019-04-01T01:32:44.751Z,74.32
2019-04-01T01:35:17.199Z,74.52
2019-04-01T01:37:49.536Z,75.00
2019-04-01T01:40:21.921Z,74.95
2019-04-01T01:42:54.221Z,74.81
2019-04-01T01:45:26.711Z,74.54
2019-04-01T01:47:59.247Z,73.98
2019-04-01T01:50:31.983Z,73.48
2019-04-01T01:53:04.561Z,73.75
2019-04-01T01:55:36.656Z,73.54
2019-04-01T01:58:09.131Z,73.52
2019-04-01T02:00:42.112Z,73.08
2019-04-01T02:03:16.034Z,73.13
2019-04-01T02:05:48.301Z,73.23
2019-04-01T02:08:21.057Z,73.30
2019-04-01T02:10:53.406Z,73.39
2019-04-01T02:13:26.418Z,73.52
2019-04-01T02:15:58.736Z,73.41
2019-04-01T02:18:31.181Z,73.46
2019-04-01T02:21:03.582Z,73.52
2019-04-01T02:23:35.892Z,73.73
2019-04-01T02:26:08.276Z,73.83
2019-04-01T02:28:40.766Z,73.80
2019-04-01T02:31:13.322Z,73.89
2019-04-01T02:33:45.883Z,73.68
2019-04-01T02:36:18.278Z,73.52
2019-04-01T02:38:50.947Z,73.47
2019-04-01T02:41:23.732Z,73.49
2019-04-01T02:43:56.103Z,73.48
2019-04-01T02:46:28.583Z,73.40
2019-04-01T02:49:01.166Z,73.53
2019-04-01T02:51:33.948Z,73.64
2019-04-01T02:54:06.207Z,73.80
2019-04-01T02:56:38.543Z,74.13
2019-04-01T02:59:10.779Z,74.24
2019-04-01T03:01:43.338Z,74.17
2019-04-01T03:04:15.893Z,74.16
2019-04-01T03:06:48.298Z,74.12
2019-04-01T03:09:21.022Z,73.96
2019-04-01T03:11:53.282Z,74.00
2019-04-01T03:14:25.780Z,74.21
2019-04-01T03:16:58.272Z,74.29
2019-04-01T03:19:30.851Z,74.34
2019-04-01T03:22:03.191Z,74.35
2019-04-01T03:24:35.593Z,74.34
2019-04-01T03:27:09.151Z,74.33
2019-04-01T03:29:41.509Z,74.45
2019-04-01T03:32:14.157Z,74.43
2019-04-01T03:34:46.613Z,74.19
2019-04-01T03:37:19.247Z,74.56
2019-04-01T03:39:51.651Z,74.94
2019-04-01T03:42:24.357Z,75.21
2019-04-01T03:44:57.069Z,75.33
2019-04-01T03:47:29.711Z,75.25
2019-04-01T03:50:02.076Z,75.27
2019-04-01T03:52:34.477Z,75.47
2019-04-01T03:55:07.426Z,75.82
2019-04-01T03:57:39.596Z,75.86
2019-04-01T04:00:13.157Z,75.96
2019-04-01T04:02:45.648Z,76.05
2019-04-01T04:05:18.039Z,75.88
2019-04-01T04:07:50.887Z,75.89
2019-04-01T04:10:23.541Z,76.10
2019-04-01T04:12:55.982Z,76.29
2019-04-01T04:15:28.242Z,76.64
2019-04-01T04:18:00.773Z,76.93
2019-04-01T04:20:33.092Z,77.13
2019-04-01T04:23:06.559Z,77.13
2019-04-01T04:25:38.932Z,77.35
2019-04-01T04:28:11.475Z,77.56
2019-04-01T04:30:44.186Z,77.77
2019-04-01T04:33:17.730Z,77.51
2019-04-01T04:35:50.377Z,77.71
2019-04-01T04:38:22.903Z,77.36
2019-04-01T04:40:55.461Z,77.25
2019-04-01T04:43:27.906Z,77.20
2019-04-01T04:46:00.327Z,77.19
2019-04-01T04:48:34.087Z,77.03
2019-04-01T04:51:06.481Z,77.07
2019-04-01T04:53:38.674Z,76.80
2019-04-01T04:56:11.006Z,76.86
2019-04-01T04:58:43.368Z,76.59
2019-04-01T05:01:15.956Z,76.18
2019-04-01T05:03:48.537Z,76.07
2019-04-01T05:06:21.216Z,75.83
2019-04-01T05:08:53.466Z,75.41
2019-04-01T05:11:25.818Z,75.07
2019-04-01T05:13:58.986Z,74.31
2019-04-01T05:16:31.728Z,73.59
2019-04-01T05:19:04.461Z,72.97
2019-04-01T05:21:36.767Z,71.89
2019-04-01T05:24:09.717Z,71.32
2019-04-01T05:26:42.284Z,70.97
2019-04-01T05:29:15.572Z,70.00
2019-04-01T05:31:48.416Z,69.63
2019-04-01T05:34:21.451Z,68.50
2019-04-01T05:36:53.871Z,68.37
2019-04-01T05:39:26.686Z,68.62
2019-04-01T05:41:59.271Z,68.86
2019-04-01T05:44:31.708Z,66.43
2019-04-01T05:47:04.141Z,64.22
2019-04-01T05:49:36.381Z,65.14
2019-04-01T05:52:08.762Z,63.59
2019-04-01T05:54:41.171Z,66.73
2019-04-01T05:57:14.211Z,62.71
2019-04-01T05:59:46.651Z,63.07
2019-04-01T06:02:19.167Z,60.96
2019-04-01T06:04:51.596Z,60.96
2019-04-01T06:07:24.001Z,59.80
2019-04-01T06:09:56.617Z,60.08
2019-04-01T06:12:28.991Z,59.84
2019-04-01T06:15:01.472Z,59.40
2019-04-01T06:17:34.181Z,59.07
2019-04-01T06:20:07.610Z,57.84
2019-04-01T06:22:39.776Z,57.01
2019-04-01T06:25:12.297Z,57.25
2019-04-01T06:27:44.926Z,56.83
2019-04-01T06:30:17.446Z,56.99
2019-04-01T06:32:49.786Z,56.63
2019-04-01T06:35:22.355Z,56.40
2019-04-01T06:37:54.893Z,55.95
2019-04-01T06:40:27.210Z,55.23
2019-04-01T06:42:59.867Z,54.72
2019-04-01T06:45:33.818Z,54.98
2019-04-01T06:48:06.541Z,55.17
2019-04-01T06:50:38.901Z,56.23
2019-04-01T06:53:11.397Z,55.97
2019-04-01T06:55:43.713Z,55.84
2019-04-01T06:58:16.153Z,56.38
2019-04-01T07:00:48.540Z,55.33
2019-04-01T07:03:21.163Z,54.54
2019-04-01T07:05:54.469Z,54.80
2019-04-01T07:08:27.126Z,54.21
2019-04-01T07:10:59.286Z,54.35
2019-04-01T07:13:39.964Z,55.22
2019-04-01T07:16:15.865Z,55.68
2019-04-01T07:18:45.531Z,53.16
2019-04-01T07:21:17.608Z,52.30
2019-04-01T07:23:49.766Z,52.13
2019-04-01T07:26:21.872Z,50.67
2019-04-01T07:28:54.027Z,50.58
2019-04-01T07:31:26.468Z,49.55
2019-04-01T07:33:59.966Z,50.44
2019-04-01T07:36:32.246Z,48.96
2019-04-01T07:39:05.786Z,49.68
2019-04-01T07:41:38.006Z,49.86
2019-04-01T07:44:10.796Z,49.52
2019-04-01T07:46:42.976Z,49.47
2019-04-01T07:49:15.336Z,48.91
2019-04-01T07:51:47.697Z,47.84
2019-04-01T07:54:20.097Z,48.33
2019-04-01T07:56:52.267Z,47.97
2019-04-01T07:59:24.458Z,48.12
2019-04-01T08:01:56.617Z,48.46
2019-04-01T08:04:28.816Z,48.20
2019-04-01T08:07:01.131Z,48.92
2019-04-01T08:09:33.596Z,48.66
2019-04-01T08:12:06.577Z,47.78
2019-04-01T08:14:38.677Z,46.92
2019-04-01T08:17:10.816Z,46.65
2019-04-01T08:19:42.916Z,46.88
2019-04-01T08:22:15.139Z,46.12
2019-04-01T08:24:47.312Z,44.96
2019-04-01T08:27:19.883Z,42.95
2019-04-01T08:29:51.857Z,44.12
2019-04-01T08:32:23.901Z,43.04
2019-04-01T08:34:56.956Z,43.05
2019-04-01T08:37:29.286Z,40.03
2019-04-01T08:40:01.555Z,36.51
2019-04-01T08:42:34.696Z,38.23
2019-04-01T08:45:09.166Z,38.23
2019-04-01T08:47:41.315Z,33.31
2019-04-01T08:50:13.398Z,33.31
2019-04-01T08:52:45.516Z,35.00
2019-04-01T08:55:17.816Z,37.43
2019-04-01T08:57:50.186Z,34.04
2019-04-01T09:00:22.456Z,29.39
2019-04-01T09:02:54.536Z,28.77
2019-04-01T09:05:26.537Z,30.37
2019-04-01T09:07:58.956Z,31.60
2019-04-01T09:10:31.056Z,30.27
2019-04-01T09:13:03.356Z,30.27
2019-04-01T09:15:35.416Z,28.76
2019-04-01T09:18:07.556Z,28.78
2019-04-01T09:20:39.695Z,28.42
2019-04-01T09:23:11.936Z,29.04
2019-04-01T09:25:43.936Z,29.03
2019-04-01T09:28:16.202Z,28.24
2019-04-01T09:30:48.616Z,28.71
2019-04-01T09:33:21.039Z,28.21
2019-04-01T09:35:53.516Z,27.67
2019-04-01T09:38:25.575Z,26.93
2019-04-01T09:40:57.616Z,27.90
2019-04-01T09:43:30.127Z,28.16
2019-04-01T09:46:02.342Z,28.83
2019-04-01T09:48:34.492Z,27.38
2019-04-01T09:51:06.936Z,26.54
2019-04-01T09:53:39.176Z,26.02
2019-04-01T09:56:11.241Z,26.81
2019-04-01T09:58:43.356Z,27.07
2019-04-01T10:01:15.836Z,26.33
2019-04-01T10:03:47.976Z,26.04
2019-04-01T10:06:20.177Z,27.14
2019-04-01T10:08:52.741Z,26.53
2019-04-01T10:11:24.956Z,26.89
2019-04-01T10:13:57.176Z,26.94
2019-04-01T10:16:29.376Z,27.14
2019-04-01T10:19:01.897Z,27.43
2019-04-01T10:21:34.096Z,27.45
2019-04-01T10:24:06.376Z,25.47
2019-04-01T10:26:38.536Z,25.71
2019-04-01T10:29:11.036Z,26.34
2019-04-01T10:31:43.479Z,26.76
2019-04-01T10:34:15.756Z,26.07
2019-04-01T10:36:48.117Z,26.20
2019-04-01T10:39:20.255Z,24.67
2019-04-01T10:41:52.337Z,24.50
2019-04-01T10:44:24.796Z,25.24
2019-04-01T10:46:57.000Z,25.35
2019-04-01T10:49:32.023Z,25.75
2019-04-01T10:52:02.929Z,25.48
2019-04-01T10:54:35.232Z,25.97
2019-04-01T10:57:07.466Z,25.63
2019-04-01T10:59:39.940Z,25.69
2019-04-01T11:02:12.009Z,25.20
2019-04-01T11:04:44.335Z,25.89
2019-04-01T11:07:16.688Z,25.69
2019-04-01T11:09:48.836Z,25.94
2019-04-01T11:12:21.236Z,26.31
2019-04-01T11:14:53.399Z,26.27
2019-04-01T11:17:25.756Z,26.38
2019-04-01T11:19:57.977Z,27.05
2019-04-01T11:22:29.936Z,26.64
2019-04-01T11:25:02.141Z,26.84
2019-04-01T11:27:34.336Z,26.61
2019-04-01T11:30:08.516Z,27.70
2019-04-01T11:32:41.519Z,27.28
2019-04-01T11:35:13.648Z,26.85
2019-04-01T11:37:45.628Z,26.12
2019-04-01T11:40:17.726Z,26.12
2019-04-01T11:42:49.958Z,27.09
2019-04-01T11:45:22.668Z,26.50
2019-04-01T11:47:55.054Z,26.97
2019-04-01T11:50:27.367Z,26.68
2019-04-01T11:52:59.577Z,26.63
2019-04-01T11:55:32.190Z,26.76
2019-04-01T11:58:04.477Z,26.73
2019-04-01T12:00:36.776Z,26.53
2019-04-01T12:03:08.855Z,27.16
2019-04-01T12:05:41.156Z,27.45
2019-04-01T12:08:13.426Z,26.77
2019-04-01T12:10:45.776Z,26.21
2019-04-01T12:13:18.075Z,26.71
2019-04-01T12:15:50.315Z,27.36
2019-04-01T12:18:22.435Z,27.70
2019-04-01T12:20:54.435Z,27.17
2019-04-01T12:23:26.858Z,26.35
2019-04-01T12:26:13.890Z,26.89
2019-04-01T12:28:36.338Z,26.37
2019-04-01T12:31:06.898Z,27.04
2019-04-01T12:33:39.791Z,27.81
2019-04-01T12:36:12.136Z,27.87
2019-04-01T12:38:44.357Z,27.37
2019-04-01T12:41:17.026Z,26.98
2019-04-01T12:43:49.346Z,27.49
2019-04-01T12:46:21.695Z,27.23
2019-04-01T12:48:54.001Z,27.20
2019-04-01T12:51:26.195Z,27.70
2019-04-01T12:53:58.520Z,27.58
2019-04-01T12:56:30.636Z,27.80
2019-04-01T12:59:02.991Z,27.94
2019-04-01T13:01:35.495Z,27.56
2019-04-01T13:04:08.046Z,27.55
2019-04-01T13:06:40.555Z,27.52
2019-04-01T13:09:12.926Z,27.34
2019-04-01T13:11:45.621Z,27.49
2019-04-01T13:14:18.556Z,26.97
2019-04-01T13:16:50.776Z,26.57
2019-04-01T13:19:23.381Z,27.11
2019-04-01T13:21:55.773Z,27.35
2019-04-01T13:24:28.906Z,27.24
2019-04-01T13:27:01.051Z,27.15
2019-04-01T13:29:33.671Z,27.04
2019-04-01T13:32:06.910Z,26.79
2019-04-01T13:34:39.231Z,27.05
2019-04-01T13:37:12.473Z,26.80
2019-04-01T13:39:46.287Z,27.31
2019-04-01T13:42:18.633Z,26.61
2019-04-01T13:44:51.531Z,26.42
2019-04-01T13:47:24.111Z,25.84
2019-04-01T13:49:56.494Z,25.91
2019-04-01T13:52:28.650Z,26.07
2019-04-01T13:55:00.830Z,26.52
2019-04-01T13:57:33.090Z,25.88
2019-04-01T14:00:06.791Z,26.65
2019-04-01T14:02:39.091Z,26.47
2019-04-01T14:05:11.431Z,27.41
2019-04-01T14:07:43.771Z,27.65
2019-04-01T14:10:15.919Z,27.52
2019-04-01T14:12:49.350Z,27.26
2019-04-01T14:15:21.706Z,27.43
2019-04-01T14:17:54.099Z,27.38
2019-04-01T14:20:26.190Z,27.50
2019-04-01T14:22:58.611Z,27.28
2019-04-01T14:25:30.830Z,27.07
2019-04-01T14:28:03.190Z,27.42
2019-04-01T14:30:36.157Z,26.88
2019-04-01T14:33:08.770Z,27.10
2019-04-01T14:35:40.731Z,27.08
2019-04-01T14:38:13.031Z,26.64
2019-04-01T14:40:45.231Z,26.83
2019-04-01T14:43:17.630Z,26.87
2019-04-01T14:45:49.891Z,27.05
2019-04-01T14:48:22.344Z,27.65
2019-04-01T14:50:54.901Z,28.03
2019-04-01T14:53:27.305Z,27.95
2019-04-01T14:55:59.881Z,28.49
2019-04-01T14:58:32.450Z,27.97
2019-04-01T15:01:04.983Z,28.03
2019-04-01T15:03:38.526Z,27.92
2019-04-01T15:06:11.721Z,28.39
2019-04-01T15:08:44.103Z,28.45
2019-04-01T15:11:16.730Z,28.36
2019-04-01T15:13:49.451Z,28.15
2019-04-01T15:16:21.856Z,28.83
2019-04-01T15:18:54.106Z,28.48
2019-04-01T15:21:26.466Z,28.77
2019-04-01T15:23:58.876Z,28.29
2019-04-01T15:26:31.348Z,28.71
2019-04-01T15:29:03.717Z,28.91
2019-04-01T15:31:36.321Z,28.90
2019-04-01T15:34:09.459Z,29.00
2019-04-01T15:36:42.169Z,29.16
2019-04-01T15:39:15.471Z,29.03
2019-04-01T15:41:47.788Z,29.13
2019-04-01T15:44:20.459Z,29.36
2019-04-01T15:46:52.735Z,28.91
2019-04-01T15:49:24.980Z,29.26
2019-04-01T15:51:57.330Z,29.39
2019-04-01T15:54:29.736Z,29.67
2019-04-01T15:57:02.286Z,29.67
2019-04-01T15:59:34.820Z,29.79
2019-04-01T16:02:07.406Z,29.99
2019-04-01T16:04:40.166Z,29.75
2019-04-01T16:07:12.685Z,29.54
2019-04-01T16:09:45.170Z,29.81
2019-04-01T16:12:17.485Z,29.94
2019-04-01T16:14:50.316Z,30.32
2019-04-01T16:17:22.931Z,30.52
2019-04-01T16:19:55.651Z,30.60
2019-04-01T16:22:27.946Z,30.56
2019-04-01T16:25:00.766Z,30.62
2019-04-01T16:27:33.290Z,30.62
2019-04-01T16:30:07.850Z,31.07
2019-04-01T16:32:40.358Z,31.38
2019-04-01T16:35:12.861Z,31.67
2019-04-01T16:37:45.651Z,31.51
2019-04-01T16:40:18.408Z,32.31
2019-04-01T16:42:51.372Z,32.31
2019-04-01T16:45:23.893Z,32.59
2019-04-01T16:47:56.286Z,32.56
2019-04-01T16:50:28.782Z,32.38
2019-04-01T16:53:01.356Z,32.38
2019-04-01T16:55:33.790Z,32.03
2019-04-01T16:58:06.701Z,32.35
2019-04-01T17:00:39.776Z,32.67
2019-04-01T17:03:13.722Z,33.14
2019-04-01T17:05:47.950Z,33.14
2019-04-01T17:08:20.666Z,32.95
2019-04-01T17:10:53.250Z,33.41
2019-04-01T17:13:27.150Z,33.41
2019-04-01T17:16:01.693Z,33.84
2019-04-01T17:18:35.540Z,34.00
2019-04-01T17:21:08.122Z,33.77
2019-04-01T17:23:41.997Z,33.77
2019-04-01T17:26:15.071Z,33.48
2019-04-01T17:28:47.696Z,33.76
2019-04-01T17:31:20.205Z,33.93
2019-04-01T17:33:53.170Z,33.72
2019-04-01T17:36:26.002Z,34.05
2019-04-01T17:38:58.762Z,34.12
2019-04-01T17:41:31.381Z,33.90
2019-04-01T17:44:03.886Z,34.33
2019-04-01T17:46:37.364Z,34.77
2019-04-01T17:49:10.312Z,34.65
2019-04-01T17:51:44.180Z,34.82
2019-04-01T17:54:17.184Z,35.20
2019-04-01T17:56:51.242Z,35.42
2019-04-01T17:59:23.836Z,35.38
2019-04-01T18:01:57.195Z,35.30
2019-04-01T18:04:30.962Z,35.50
2019-04-01T18:07:03.806Z,35.12
2019-04-01T18:09:36.314Z,35.31
2019-04-01T18:12:08.839Z,35.55
2019-04-01T18:14:41.206Z,35.44
2019-04-01T18:17:13.806Z,35.73
2019-04-01T18:19:47.267Z,35.26
2019-04-01T18:22:19.922Z,35.56
2019-04-01T18:24:52.348Z,35.66
2019-04-01T18:27:25.068Z,35.58
2019-04-01T18:29:57.506Z,35.64
2019-04-01T18:32:31.131Z,35.84
2019-04-01T18:35:04.369Z,35.89
2019-04-01T18:37:37.048Z,36.03
2019-04-01T18:40:09.648Z,36.29
2019-04-01T18:42:42.266Z,36.59
2019-04-01T18:45:14.681Z,37.01
2019-04-01T18:47:47.451Z,36.77
2019-04-01T18:50:20.006Z,37.17
2019-04-01T18:52:52.777Z,37.49
2019-04-01T18:55:26.331Z,37.70
2019-04-01T18:57:59.206Z,38.11
2019-04-01T19:00:31.656Z,38.18
2019-04-01T19:03:04.260Z,38.24
2019-04-01T19:05:36.611Z,38.40
2019-04-01T19:08:09.222Z,38.68
2019-04-01T19:10:42.037Z,38.76
2019-04-01T19:13:14.911Z,38.91
2019-04-01T19:15:48.160Z,39.39
2019-04-01T19:18:21.435Z,39.73
2019-04-01T19:20:56.849Z,40.02
2019-04-01T19:23:28.090Z,40.38
2019-04-01T19:26:00.492Z,40.64
2019-04-01T19:28:33.103Z,40.67
2019-04-01T19:31:05.536Z,40.88
2019-04-01T19:33:38.317Z,41.06
2019-04-01T19:36:11.246Z,41.53
2019-04-01T19:38:43.921Z,41.52
2019-04-01T19:41:16.566Z,41.55
2019-04-01T19:43:51.164Z,41.81
2019-04-01T19:46:23.861Z,41.80
2019-04-01T19:48:56.352Z,42.00
2019-04-01T19:51:29.011Z,42.08
2019-04-01T19:54:01.421Z,42.10
2019-04-01T19:56:34.305Z,42.23
2019-04-01T19:59:06.892Z,42.42
2019-04-01T20:01:39.753Z,42.53
2019-04-01T20:04:12.256Z,42.63
2019-04-01T20:06:44.821Z,42.75
2019-04-01T20:09:18.122Z,42.80
2019-04-01T20:11:50.964Z,42.80
2019-04-01T20:14:23.491Z,43.09
2019-04-01T20:16:55.940Z,43.05
2019-04-01T20:19:29.781Z,43.19
2019-04-01T20:22:02.181Z,43.22
2019-04-01T20:24:34.861Z,43.20
2019-04-01T20:27:07.186Z,43.45
2019-04-01T20:29:40.815Z,43.48
2019-04-01T20:32:17.649Z,43.59
2019-04-01T20:34:56.757Z,43.68
2019-04-01T20:37:21.708Z,43.88
2019-04-01T20:39:55.258Z,43.88
2019-04-01T20:42:28.396Z,43.93
2019-04-01T20:45:01.176Z,44.19
2019-04-01T20:47:33.500Z,44.15
2019-04-01T20:50:11.186Z,44.51
2019-04-01T20:52:43.823Z,44.71
2019-04-01T20:55:16.586Z,45.06
2019-04-01T20:57:49.133Z,44.75
2019-04-01T21:00:21.843Z,44.99
2019-04-01T21:02:54.481Z,45.27
2019-04-01T21:05:27.117Z,45.18
2019-04-01T21:07:59.510Z,45.37
2019-04-01T21:10:31.996Z,45.36
2019-04-01T21:13:06.036Z,45.43
2019-04-01T21:15:38.354Z,45.43
2019-04-01T21:18:10.910Z,45.58
2019-04-01T21:20:43.545Z,45.77
2019-04-01T21:23:16.101Z,45.93
2019-04-01T21:25:48.831Z,45.97
2019-04-01T21:28:22.925Z,46.13
2019-04-01T21:30:55.786Z,46.28
2019-04-01T21:33:28.341Z,46.39
2019-04-01T21:36:01.016Z,46.63
2019-04-01T21:38:33.509Z,46.74
2019-04-01T21:41:05.925Z,46.98
2019-04-01T21:43:38.561Z,46.81
2019-04-01T21:46:10.986Z,46.99
2019-04-01T21:48:43.701Z,47.05
2019-04-01T21:51:16.632Z,47.30
2019-04-01T21:53:49.090Z,47.39
2019-04-01T21:56:22.189Z,47.50
2019-04-01T21:58:55.681Z,47.63
2019-04-01T22:01:28.282Z,47.71
2019-04-01T22:04:00.845Z,47.87
2019-04-01T22:06:33.327Z,48.00
2019-04-01T22:09:08.836Z,48.22
2019-04-01T22:11:41.271Z,48.31
2019-04-01T22:14:13.496Z,48.53
2019-04-01T22:16:48.018Z,48.63
2019-04-01T22:19:20.656Z,48.65
2019-04-01T22:21:53.380Z,48.77
2019-04-01T22:24:25.855Z,48.52
2019-04-01T22:26:58.415Z,48.80
2019-04-01T22:29:30.858Z,48.99
2019-04-01T22:32:03.355Z,48.98
2019-04-01T22:34:38.068Z,49.08
2019-04-01T22:37:10.866Z,49.41
2019-04-01T22:39:45.443Z,49.63
2019-04-01T22:42:17.626Z,49.70
2019-04-01T22:44:50.132Z,49.71
2019-04-01T22:47:24.347Z,50.00
2019-04-01T22:49:58.196Z,50.17
2019-04-01T22:52:30.552Z,50.37
2019-04-01T22:55:03.127Z,50.47
2019-04-01T22:57:35.716Z,50.73
2019-04-01T23:00:08.095Z,50.72
2019-04-01T23:02:42.382Z,50.62
2019-04-01T23:05:15.401Z,51.04
2019-04-01T23:07:47.756Z,50.96
2019-04-01T23:10:20.390Z,51.06
2019-04-01T23:12:52.589Z,51.12
2019-04-01T23:15:25.242Z,51.01
2019-04-01T23:17:57.616Z,51.12
2019-04-01T23:20:29.871Z,51.02
2019-04-01T23:23:01.971Z,51.14
2019-04-01T23:25:34.511Z,51.17
2019-04-01T23:28:06.731Z,51.32
2019-04-01T23:30:39.286Z,51.40
2019-04-01T23:33:11.513Z,51.40
2019-04-01T23:35:43.996Z,51.45
2019-04-01T23:38:17.481Z,51.32
2019-04-01T23:40:49.846Z,51.30
2019-04-01T23:43:22.465Z,51.23
2019-04-01T23:45:55.152Z,51.04
2019-04-01T23:48:27.341Z,50.76
2019-04-01T23:50:59.805Z,50.60
2019-04-01T23:53:32.560Z,50.46
2019-04-01T23:56:05.072Z,50.25
2019-04-01T23:58:37.446Z,50.13
